sensor_id;sensor_type;location;lat;lon;timestamp;P1;durP1;ratioP1;P2;durP2;ratioP2
39322;SDS011;25036;53.638;10.134;2024-01-07T00:00:58;1.57;;;1.07;;
39322;SDS011;25036;53.638;10.134;2024-01-07T00:01:59;2.33;;;1.07;;
39322;SDS011;25036;53.638;10.134;2024-01-07T00:02:59;2.10;;;1.03;;
39322;SDS011;25036;53.638;10.134;2024-01-07T00:03:59;1.40;;;1.00;;
39322;SDS011;25036;53.638;10.134;2024-01-07T00:04:59;1.57;;;1.07;;
39322;SDS011;25036;53.638;10.134;2024-01-07T00:05:59;4.23;;;1.30;;
39322;SDS011;25036;53.638;10.134;2024-01-07T00:06:59;1.20;;;0.98;;
39322;SDS011;25036;53.638;10.134;2024-01-07T00:08:00;1.35;;;0.98;;
39322;SDS011;25036;53.638;10.134;2024-01-07T00:09:00;1.63;;;1.10;;
39322;SDS011;25036;53.638;10.134;2024-01-07T00:10:00;1.38;;;1.10;;
39322;SDS011;25036;53.638;10.134;2024-01-07T00:11:00;1.07;;;0.80;;
39322;SDS011;25036;53.638;10.134;2024-01-07T00:12:00;1.50;;;1.10;;
39322;SDS011;25036;53.638;10.134;2024-01-07T00:13:00;2.10;;;0.93;;
39322;SDS011;25036;53.638;10.134;2024-01-07T00:14:01;1.33;;;1.00;;
39322;SDS011;25036;53.638;10.134;2024-01-07T00:15:01;1.73;;;0.77;;
39322;SDS011;25036;53.638;10.134;2024-01-07T00:16:01;2.03;;;1.00;;
39322;SDS011;25036;53.638;10.134;2024-01-07T00:17:01;1.20;;;0.90;;
39322;SDS011;25036;53.638;10.134;2024-01-07T00:18:01;1.93;;;1.20;;
39322;SDS011;25036;53.638;10.134;2024-01-07T00:19:02;1.90;;;0.98;;
39322;SDS011;25036;53.638;10.134;2024-01-07T00:20:02;2.10;;;0.90;;
39322;SDS011;25036;53.638;10.134;2024-01-07T00:21:03;2.50;;;0.98;;
39322;SDS011;25036;53.638;10.134;2024-01-07T00:22:03;0.95;;;0.75;;
39322;SDS011;25036;53.638;10.134;2024-01-07T00:23:03;1.20;;;0.90;;
39322;SDS011;25036;53.638;10.134;2024-01-07T00:24:04;0.98;;;0.88;;
39322;SDS011;25036;53.638;10.134;2024-01-07T00:25:04;1.83;;;0.95;;
39322;SDS011;25036;53.638;10.134;2024-01-07T00:26:04;2.75;;;0.93;;
39322;SDS011;25036;53.638;10.134;2024-01-07T00:27:04;1.80;;;0.90;;
39322;SDS011;25036;53.638;10.134;2024-01-07T00:28:04;1.37;;;0.87;;
39322;SDS011;25036;53.638;10.134;2024-01-07T00:29:05;0.95;;;0.73;;
39322;SDS011;25036;53.638;10.134;2024-01-07T00:30:05;1.52;;;1.08;;
39322;SDS011;25036;53.638;10.134;2024-01-07T00:31:06;1.48;;;1.00;;
39322;SDS011;25036;53.638;10.134;2024-01-07T00:32:08;1.08;;;0.80;;
39322;SDS011;25036;53.638;10.134;2024-01-07T00:33:09;1.77;;;0.87;;
39322;SDS011;25036;53.638;10.134;2024-01-07T00:34:09;1.40;;;0.90;;
39322;SDS011;25036;53.638;10.134;2024-01-07T00:35:09;1.20;;;0.90;;
39322;SDS011;25036;53.638;10.134;2024-01-07T00:36:09;1.50;;;0.90;;
39322;SDS011;25036;53.638;10.134;2024-01-07T00:37:09;2.28;;;1.05;;
39322;SDS011;25036;53.638;10.134;2024-01-07T00:38:09;1.40;;;0.77;;
39322;SDS011;25036;53.638;10.134;2024-01-07T00:39:09;0.93;;;0.80;;
39322;SDS011;25036;53.638;10.134;2024-01-07T00:40:10;1.63;;;0.80;;
39322;SDS011;25036;53.638;10.134;2024-01-07T00:41:10;2.08;;;0.80;;
39322;SDS011;25036;53.638;10.134;2024-01-07T00:42:10;2.27;;;0.80;;
39322;SDS011;25036;53.638;10.134;2024-01-07T00:43:10;1.80;;;0.80;;
39322;SDS011;25036;53.638;10.134;2024-01-07T00:44:10;1.90;;;0.87;;
39322;SDS011;25036;53.638;10.134;2024-01-07T00:45:10;1.27;;;0.80;;
39322;SDS011;25036;53.638;10.134;2024-01-07T00:46:11;1.52;;;1.05;;
39322;SDS011;25036;53.638;10.134;2024-01-07T00:47:11;2.10;;;0.80;;
39322;SDS011;25036;53.638;10.134;2024-01-07T00:48:12;3.33;;;0.90;;
39322;SDS011;25036;53.638;10.134;2024-01-07T00:49:12;1.10;;;0.82;;
39322;SDS011;25036;53.638;10.134;2024-01-07T00:50:12;1.37;;;0.73;;
39322;SDS011;25036;53.638;10.134;2024-01-07T00:51:12;1.65;;;0.80;;
39322;SDS011;25036;53.638;10.134;2024-01-07T00:52:12;2.67;;;1.03;;
39322;SDS011;25036;53.638;10.134;2024-01-07T00:53:12;1.70;;;0.97;;
39322;SDS011;25036;53.638;10.134;2024-01-07T00:54:12;2.67;;;0.90;;
39322;SDS011;25036;53.638;10.134;2024-01-07T00:55:13;3.63;;;0.90;;
39322;SDS011;25036;53.638;10.134;2024-01-07T00:56:13;3.17;;;0.97;;
39322;SDS011;25036;53.638;10.134;2024-01-07T00:57:13;1.40;;;0.80;;
39322;SDS011;25036;53.638;10.134;2024-01-07T00:58:13;1.40;;;0.70;;
39322;SDS011;25036;53.638;10.134;2024-01-07T00:59:13;1.57;;;0.80;;
39322;SDS011;25036;53.638;10.134;2024-01-07T01:00:14;1.40;;;1.00;;
39322;SDS011;25036;53.638;10.134;2024-01-07T01:01:14;1.30;;;0.88;;
39322;SDS011;25036;53.638;10.134;2024-01-07T01:02:14;1.53;;;0.70;;
39322;SDS011;25036;53.638;10.134;2024-01-07T01:03:14;1.33;;;0.80;;
39322;SDS011;25036;53.638;10.134;2024-01-07T01:04:14;1.93;;;1.03;;
39322;SDS011;25036;53.638;10.134;2024-01-07T01:05:14;1.93;;;0.90;;
39322;SDS011;25036;53.638;10.134;2024-01-07T01:06:14;2.08;;;1.00;;
39322;SDS011;25036;53.638;10.134;2024-01-07T01:07:15;1.57;;;0.60;;
39322;SDS011;25036;53.638;10.134;2024-01-07T01:08:15;0.80;;;0.70;;
39322;SDS011;25036;53.638;10.134;2024-01-07T01:09:15;2.37;;;0.90;;
39322;SDS011;25036;53.638;10.134;2024-01-07T01:10:15;1.20;;;0.80;;
39322;SDS011;25036;53.638;10.134;2024-01-07T01:11:16;1.08;;;0.80;;
39322;SDS011;25036;53.638;10.134;2024-01-07T01:12:17;1.53;;;0.90;;
39322;SDS011;25036;53.638;10.134;2024-01-07T01:13:17;1.07;;;0.70;;
39322;SDS011;25036;53.638;10.134;2024-01-07T01:14:17;4.47;;;1.00;;
39322;SDS011;25036;53.638;10.134;2024-01-07T01:15:17;1.27;;;0.80;;
39322;SDS011;25036;53.638;10.134;2024-01-07T01:16:17;1.73;;;0.80;;
39322;SDS011;25036;53.638;10.134;2024-01-07T01:17:17;1.50;;;0.82;;
39322;SDS011;25036;53.638;10.134;2024-01-07T01:18:18;1.83;;;0.70;;
39322;SDS011;25036;53.638;10.134;2024-01-07T01:19:18;1.13;;;0.70;;
39322;SDS011;25036;53.638;10.134;2024-01-07T01:20:18;2.05;;;0.90;;
39322;SDS011;25036;53.638;10.134;2024-01-07T01:21:18;2.23;;;0.90;;
39322;SDS011;25036;53.638;10.134;2024-01-07T01:22:18;1.07;;;0.80;;
39322;SDS011;25036;53.638;10.134;2024-01-07T01:23:18;1.83;;;0.90;;
39322;SDS011;25036;53.638;10.134;2024-01-07T01:24:18;1.30;;;0.77;;
39322;SDS011;25036;53.638;10.134;2024-01-07T01:25:19;2.33;;;0.80;;
39322;SDS011;25036;53.638;10.134;2024-01-07T01:26:19;2.63;;;1.00;;
39322;SDS011;25036;53.638;10.134;2024-01-07T01:27:19;0.93;;;0.63;;
39322;SDS011;25036;53.638;10.134;2024-01-07T01:28:19;1.83;;;0.80;;
39322;SDS011;25036;53.638;10.134;2024-01-07T01:29:19;1.80;;;0.87;;
39322;SDS011;25036;53.638;10.134;2024-01-07T01:30:20;0.93;;;0.80;;
39322;SDS011;25036;53.638;10.134;2024-01-07T01:31:20;1.67;;;0.83;;
39322;SDS011;25036;53.638;10.134;2024-01-07T01:32:20;1.53;;;0.83;;
39322;SDS011;25036;53.638;10.134;2024-01-07T01:33:20;1.27;;;0.80;;
39322;SDS011;25036;53.638;10.134;2024-01-07T01:34:20;1.67;;;0.90;;
39322;SDS011;25036;53.638;10.134;2024-01-07T01:35:20;1.10;;;0.70;;
39322;SDS011;25036;53.638;10.134;2024-01-07T01:36:20;1.63;;;0.80;;
39322;SDS011;25036;53.638;10.134;2024-01-07T01:37:20;2.13;;;0.80;;
39322;SDS011;25036;53.638;10.134;2024-01-07T01:38:21;1.20;;;0.60;;
39322;SDS011;25036;53.638;10.134;2024-01-07T01:39:21;1.60;;;0.70;;
39322;SDS011;25036;53.638;10.134;2024-01-07T01:40:21;0.93;;;0.70;;
39322;SDS011;25036;53.638;10.134;2024-01-07T01:41:21;2.50;;;0.77;;
39322;SDS011;25036;53.638;10.134;2024-01-07T01:42:21;1.75;;;0.80;;
39322;SDS011;25036;53.638;10.134;2024-01-07T01:43:22;1.37;;;0.93;;
39322;SDS011;25036;53.638;10.134;2024-01-07T01:44:22;1.40;;;1.00;;
39322;SDS011;25036;53.638;10.134;2024-01-07T01:45:22;2.07;;;0.73;;
39322;SDS011;25036;53.638;10.134;2024-01-07T01:46:22;0.80;;;0.60;;
39322;SDS011;25036;53.638;10.134;2024-01-07T01:47:23;0.88;;;0.60;;
39322;SDS011;25036;53.638;10.134;2024-01-07T01:48:23;3.28;;;1.67;;
39322;SDS011;25036;53.638;10.134;2024-01-07T01:49:24;0.90;;;0.70;;
39322;SDS011;25036;53.638;10.134;2024-01-07T01:50:24;2.43;;;1.00;;
39322;SDS011;25036;53.638;10.134;2024-01-07T01:51:24;2.17;;;0.80;;
39322;SDS011;25036;53.638;10.134;2024-01-07T01:52:24;1.23;;;0.80;;
39322;SDS011;25036;53.638;10.134;2024-01-07T01:53:25;1.83;;;0.80;;
39322;SDS011;25036;53.638;10.134;2024-01-07T01:54:28;2.10;;;0.60;;
39322;SDS011;25036;53.638;10.134;2024-01-07T01:55:29;1.38;;;0.77;;
39322;SDS011;25036;53.638;10.134;2024-01-07T01:56:29;2.03;;;1.00;;
39322;SDS011;25036;53.638;10.134;2024-01-07T01:57:32;1.80;;;0.70;;
39322;SDS011;25036;53.638;10.134;2024-01-07T01:58:33;2.45;;;0.88;;
39322;SDS011;25036;53.638;10.134;2024-01-07T01:59:33;1.10;;;0.63;;
39322;SDS011;25036;53.638;10.134;2024-01-07T02:00:33;1.48;;;0.98;;
39322;SDS011;25036;53.638;10.134;2024-01-07T02:01:33;2.10;;;0.70;;
39322;SDS011;25036;53.638;10.134;2024-01-07T02:02:34;1.23;;;0.60;;
39322;SDS011;25036;53.638;10.134;2024-01-07T02:03:34;1.80;;;1.00;;
39322;SDS011;25036;53.638;10.134;2024-01-07T02:04:34;1.70;;;0.80;;
39322;SDS011;25036;53.638;10.134;2024-01-07T02:05:34;0.73;;;0.65;;
39322;SDS011;25036;53.638;10.134;2024-01-07T02:06:34;0.80;;;0.77;;
39322;SDS011;25036;53.638;10.134;2024-01-07T02:07:35;0.93;;;0.55;;
39322;SDS011;25036;53.638;10.134;2024-01-07T02:08:35;1.60;;;0.80;;
39322;SDS011;25036;53.638;10.134;2024-01-07T02:09:35;1.60;;;0.70;;
39322;SDS011;25036;53.638;10.134;2024-01-07T02:10:35;1.63;;;0.70;;
39322;SDS011;25036;53.638;10.134;2024-01-07T02:11:36;1.95;;;0.70;;
39322;SDS011;25036;53.638;10.134;2024-01-07T02:12:36;1.97;;;1.03;;
39322;SDS011;25036;53.638;10.134;2024-01-07T02:13:36;1.73;;;0.70;;
39322;SDS011;25036;53.638;10.134;2024-01-07T02:14:37;1.37;;;0.80;;
39322;SDS011;25036;53.638;10.134;2024-01-07T02:15:37;0.93;;;0.82;;
39322;SDS011;25036;53.638;10.134;2024-01-07T02:16:37;1.20;;;0.82;;
39322;SDS011;25036;53.638;10.134;2024-01-07T02:17:37;2.13;;;1.40;;
39322;SDS011;25036;53.638;10.134;2024-01-07T02:18:37;2.00;;;1.03;;
39322;SDS011;25036;53.638;10.134;2024-01-07T02:19:38;2.75;;;0.80;;
39322;SDS011;25036;53.638;10.134;2024-01-07T02:20:38;0.80;;;0.80;;
39322;SDS011;25036;53.638;10.134;2024-01-07T02:21:38;1.13;;;0.60;;
39322;SDS011;25036;53.638;10.134;2024-01-07T02:22:38;2.20;;;0.70;;
39322;SDS011;25036;53.638;10.134;2024-01-07T02:23:38;1.40;;;0.80;;
39322;SDS011;25036;53.638;10.134;2024-01-07T02:24:39;1.13;;;0.60;;
39322;SDS011;25036;53.638;10.134;2024-01-07T02:25:39;1.27;;;0.90;;
39322;SDS011;25036;53.638;10.134;2024-01-07T02:26:39;1.03;;;0.70;;
39322;SDS011;25036;53.638;10.134;2024-01-07T02:27:39;2.03;;;0.80;;
39322;SDS011;25036;53.638;10.134;2024-01-07T02:28:39;1.97;;;0.70;;
39322;SDS011;25036;53.638;10.134;2024-01-07T02:29:39;1.53;;;0.60;;
39322;SDS011;25036;53.638;10.134;2024-01-07T02:30:39;2.17;;;0.90;;
39322;SDS011;25036;53.638;10.134;2024-01-07T02:31:39;1.47;;;0.80;;
39322;SDS011;25036;53.638;10.134;2024-01-07T02:32:40;1.90;;;0.87;;
39322;SDS011;25036;53.638;10.134;2024-01-07T02:33:40;1.25;;;0.77;;
39322;SDS011;25036;53.638;10.134;2024-01-07T02:34:40;1.43;;;0.80;;
39322;SDS011;25036;53.638;10.134;2024-01-07T02:35:40;2.03;;;0.80;;
39322;SDS011;25036;53.638;10.134;2024-01-07T02:36:40;1.70;;;0.60;;
39322;SDS011;25036;53.638;10.134;2024-01-07T02:37:40;1.97;;;0.80;;
39322;SDS011;25036;53.638;10.134;2024-01-07T02:38:40;1.20;;;0.80;;
39322;SDS011;25036;53.638;10.134;2024-01-07T02:39:40;2.40;;;1.00;;
39322;SDS011;25036;53.638;10.134;2024-01-07T02:40:41;2.27;;;0.87;;
39322;SDS011;25036;53.638;10.134;2024-01-07T02:41:41;1.52;;;0.80;;
39322;SDS011;25036;53.638;10.134;2024-01-07T02:42:41;2.20;;;0.97;;
39322;SDS011;25036;53.638;10.134;2024-01-07T02:43:41;1.67;;;0.77;;
39322;SDS011;25036;53.638;10.134;2024-01-07T02:44:41;1.67;;;0.80;;
39322;SDS011;25036;53.638;10.134;2024-01-07T02:45:41;1.10;;;0.60;;
39322;SDS011;25036;53.638;10.134;2024-01-07T02:46:41;0.93;;;0.83;;
39322;SDS011;25036;53.638;10.134;2024-01-07T02:47:41;1.93;;;0.80;;
39322;SDS011;25036;53.638;10.134;2024-01-07T02:48:42;1.13;;;0.77;;
39322;SDS011;25036;53.638;10.134;2024-01-07T02:49:42;0.90;;;0.80;;
39322;SDS011;25036;53.638;10.134;2024-01-07T02:50:42;1.27;;;0.67;;
39322;SDS011;25036;53.638;10.134;2024-01-07T02:51:42;2.25;;;0.88;;
39322;SDS011;25036;53.638;10.134;2024-01-07T02:52:45;2.30;;;0.90;;
39322;SDS011;25036;53.638;10.134;2024-01-07T02:53:45;1.20;;;0.70;;
39322;SDS011;25036;53.638;10.134;2024-01-07T02:54:45;1.57;;;0.90;;
39322;SDS011;25036;53.638;10.134;2024-01-07T02:55:45;1.33;;;1.00;;
39322;SDS011;25036;53.638;10.134;2024-01-07T02:56:45;1.30;;;0.67;;
39322;SDS011;25036;53.638;10.134;2024-01-07T02:57:45;2.50;;;1.00;;
39322;SDS011;25036;53.638;10.134;2024-01-07T02:58:45;2.60;;;0.83;;
39322;SDS011;25036;53.638;10.134;2024-01-07T02:59:46;1.00;;;0.80;;
39322;SDS011;25036;53.638;10.134;2024-01-07T03:00:46;1.38;;;1.00;;
39322;SDS011;25036;53.638;10.134;2024-01-07T03:01:46;1.00;;;0.80;;
39322;SDS011;25036;53.638;10.134;2024-01-07T03:02:46;1.57;;;0.80;;
39322;SDS011;25036;53.638;10.134;2024-01-07T03:03:46;1.93;;;0.83;;
39322;SDS011;25036;53.638;10.134;2024-01-07T03:04:46;0.73;;;0.73;;
39322;SDS011;25036;53.638;10.134;2024-01-07T03:05:47;1.47;;;0.90;;
39322;SDS011;25036;53.638;10.134;2024-01-07T03:06:47;1.00;;;0.80;;
39322;SDS011;25036;53.638;10.134;2024-01-07T03:07:47;1.93;;;1.00;;
39322;SDS011;25036;53.638;10.134;2024-01-07T03:08:47;1.63;;;0.87;;
39322;SDS011;25036;53.638;10.134;2024-01-07T03:09:48;2.15;;;0.80;;
39322;SDS011;25036;53.638;10.134;2024-01-07T03:10:48;1.48;;;0.80;;
39322;SDS011;25036;53.638;10.134;2024-01-07T03:11:49;2.47;;;0.97;;
39322;SDS011;25036;53.638;10.134;2024-01-07T03:12:49;0.70;;;0.70;;
39322;SDS011;25036;53.638;10.134;2024-01-07T03:13:49;1.40;;;0.80;;
39322;SDS011;25036;53.638;10.134;2024-01-07T03:14:49;2.10;;;1.07;;
39322;SDS011;25036;53.638;10.134;2024-01-07T03:15:49;1.80;;;0.70;;
39322;SDS011;25036;53.638;10.134;2024-01-07T03:16:49;0.80;;;0.70;;
39322;SDS011;25036;53.638;10.134;2024-01-07T03:17:50;3.55;;;0.90;;
39322;SDS011;25036;53.638;10.134;2024-01-07T03:18:50;1.47;;;0.70;;
39322;SDS011;25036;53.638;10.134;2024-01-07T03:19:50;1.33;;;0.65;;
39322;SDS011;25036;53.638;10.134;2024-01-07T03:20:50;1.10;;;0.90;;
39322;SDS011;25036;53.638;10.134;2024-01-07T03:21:50;1.53;;;0.80;;
39322;SDS011;25036;53.638;10.134;2024-01-07T03:22:50;1.53;;;0.73;;
39322;SDS011;25036;53.638;10.134;2024-01-07T03:23:51;2.30;;;0.70;;
39322;SDS011;25036;53.638;10.134;2024-01-07T03:24:51;2.08;;;0.70;;
39322;SDS011;25036;53.638;10.134;2024-01-07T03:25:51;1.27;;;0.73;;
39322;SDS011;25036;53.638;10.134;2024-01-07T03:26:51;1.27;;;0.87;;
39322;SDS011;25036;53.638;10.134;2024-01-07T03:27:51;1.38;;;0.77;;
39322;SDS011;25036;53.638;10.134;2024-01-07T03:28:51;1.30;;;0.90;;
39322;SDS011;25036;53.638;10.134;2024-01-07T03:29:52;1.60;;;0.70;;
39322;SDS011;25036;53.638;10.134;2024-01-07T03:30:52;0.80;;;0.80;;
39322;SDS011;25036;53.638;10.134;2024-01-07T03:31:53;0.87;;;0.60;;
39322;SDS011;25036;53.638;10.134;2024-01-07T03:32:53;1.17;;;0.80;;
39322;SDS011;25036;53.638;10.134;2024-01-07T03:33:53;2.13;;;0.93;;
39322;SDS011;25036;53.638;10.134;2024-01-07T03:34:53;1.67;;;0.68;;
39322;SDS011;25036;53.638;10.134;2024-01-07T03:35:53;0.87;;;0.50;;
39322;SDS011;25036;53.638;10.134;2024-01-07T03:36:53;1.00;;;0.70;;
39322;SDS011;25036;53.638;10.134;2024-01-07T03:37:54;1.30;;;0.73;;
39322;SDS011;25036;53.638;10.134;2024-01-07T03:38:54;0.93;;;0.67;;
39322;SDS011;25036;53.638;10.134;2024-01-07T03:39:54;1.60;;;0.70;;
39322;SDS011;25036;53.638;10.134;2024-01-07T03:40:54;1.13;;;0.83;;
39322;SDS011;25036;53.638;10.134;2024-01-07T03:41:54;2.10;;;0.93;;
39322;SDS011;25036;53.638;10.134;2024-01-07T03:42:55;0.90;;;0.65;;
39322;SDS011;25036;53.638;10.134;2024-01-07T03:43:55;1.50;;;0.80;;
39322;SDS011;25036;53.638;10.134;2024-01-07T03:44:55;1.50;;;0.93;;
39322;SDS011;25036;53.638;10.134;2024-01-07T03:45:55;1.07;;;0.73;;
39322;SDS011;25036;53.638;10.134;2024-01-07T03:46:55;0.90;;;0.60;;
39322;SDS011;25036;53.638;10.134;2024-01-07T03:47:55;2.03;;;0.70;;
39322;SDS011;25036;53.638;10.134;2024-01-07T03:48:55;0.77;;;0.50;;
39322;SDS011;25036;53.638;10.134;2024-01-07T03:49:55;1.30;;;0.70;;
39322;SDS011;25036;53.638;10.134;2024-01-07T03:50:55;1.47;;;0.80;;
39322;SDS011;25036;53.638;10.134;2024-01-07T03:51:56;0.83;;;0.63;;
39322;SDS011;25036;53.638;10.134;2024-01-07T03:52:56;2.57;;;0.87;;
39322;SDS011;25036;53.638;10.134;2024-01-07T03:53:56;1.27;;;0.70;;
39322;SDS011;25036;53.638;10.134;2024-01-07T03:54:56;0.80;;;0.50;;
39322;SDS011;25036;53.638;10.134;2024-01-07T03:55:56;1.15;;;0.50;;
39322;SDS011;25036;53.638;10.134;2024-01-07T03:56:56;0.93;;;0.80;;
39322;SDS011;25036;53.638;10.134;2024-01-07T03:57:56;1.37;;;0.70;;
39322;SDS011;25036;53.638;10.134;2024-01-07T03:58:56;0.63;;;0.50;;
39322;SDS011;25036;53.638;10.134;2024-01-07T03:59:57;1.20;;;0.83;;
39322;SDS011;25036;53.638;10.134;2024-01-07T04:00:57;0.70;;;0.70;;
39322;SDS011;25036;53.638;10.134;2024-01-07T04:01:57;1.35;;;0.63;;
39322;SDS011;25036;53.638;10.134;2024-01-07T04:02:57;1.20;;;0.70;;
39322;SDS011;25036;53.638;10.134;2024-01-07T04:03:58;0.80;;;0.63;;
39322;SDS011;25036;53.638;10.134;2024-01-07T04:04:58;1.37;;;0.67;;
39322;SDS011;25036;53.638;10.134;2024-01-07T04:05:58;1.57;;;0.70;;
39322;SDS011;25036;53.638;10.134;2024-01-07T04:06:58;0.60;;;0.43;;
39322;SDS011;25036;53.638;10.134;2024-01-07T04:08:00;0.60;;;0.60;;
39322;SDS011;25036;53.638;10.134;2024-01-07T04:09:00;0.65;;;0.60;;
39322;SDS011;25036;53.638;10.134;2024-01-07T04:10:00;1.50;;;0.60;;
39322;SDS011;25036;53.638;10.134;2024-01-07T04:11:01;1.13;;;0.60;;
39322;SDS011;25036;53.638;10.134;2024-01-07T04:12:01;0.77;;;0.50;;
39322;SDS011;25036;53.638;10.134;2024-01-07T04:13:02;1.10;;;0.60;;
39322;SDS011;25036;53.638;10.134;2024-01-07T04:14:02;0.60;;;0.43;;
39322;SDS011;25036;53.638;10.134;2024-01-07T04:15:02;3.27;;;0.80;;
39322;SDS011;25036;53.638;10.134;2024-01-07T04:16:02;0.52;;;0.52;;
39322;SDS011;25036;53.638;10.134;2024-01-07T04:17:03;1.20;;;0.70;;
39322;SDS011;25036;53.638;10.134;2024-01-07T04:18:03;1.70;;;0.53;;
39322;SDS011;25036;53.638;10.134;2024-01-07T04:19:03;1.15;;;0.50;;
39322;SDS011;25036;53.638;10.134;2024-01-07T04:20:05;0.90;;;0.50;;
39322;SDS011;25036;53.638;10.134;2024-01-07T04:21:08;1.10;;;0.63;;
39322;SDS011;25036;53.638;10.134;2024-01-07T04:22:08;0.88;;;0.30;;
39322;SDS011;25036;53.638;10.134;2024-01-07T04:23:08;1.20;;;0.50;;
39322;SDS011;25036;53.638;10.134;2024-01-07T04:24:09;1.17;;;0.60;;
39322;SDS011;25036;53.638;10.134;2024-01-07T04:25:09;0.70;;;0.33;;
39322;SDS011;25036;53.638;10.134;2024-01-07T04:26:10;0.52;;;0.32;;
39322;SDS011;25036;53.638;10.134;2024-01-07T04:27:10;0.97;;;0.40;;
39322;SDS011;25036;53.638;10.134;2024-01-07T04:28:10;0.30;;;0.30;;
39322;SDS011;25036;53.638;10.134;2024-01-07T04:29:11;1.30;;;0.50;;
39322;SDS011;25036;53.638;10.134;2024-01-07T04:30:11;0.77;;;0.30;;
39322;SDS011;25036;53.638;10.134;2024-01-07T04:31:11;0.40;;;0.30;;
39322;SDS011;25036;53.638;10.134;2024-01-07T04:32:11;2.37;;;0.47;;
39322;SDS011;25036;53.638;10.134;2024-01-07T04:33:11;1.13;;;0.50;;
39322;SDS011;25036;53.638;10.134;2024-01-07T04:34:12;0.50;;;0.30;;
39322;SDS011;25036;53.638;10.134;2024-01-07T04:35:12;0.20;;;0.20;;
39322;SDS011;25036;53.638;10.134;2024-01-07T04:36:12;1.00;;;0.43;;
39322;SDS011;25036;53.638;10.134;2024-01-07T04:37:12;0.60;;;0.30;;
39322;SDS011;25036;53.638;10.134;2024-01-07T04:38:13;1.07;;;0.33;;
39322;SDS011;25036;53.638;10.134;2024-01-07T04:39:13;0.45;;;0.22;;
39322;SDS011;25036;53.638;10.134;2024-01-07T04:40:13;0.63;;;0.30;;
39322;SDS011;25036;53.638;10.134;2024-01-07T04:41:14;0.60;;;0.40;;
39322;SDS011;25036;53.638;10.134;2024-01-07T04:42:14;2.27;;;0.30;;
39322;SDS011;25036;53.638;10.134;2024-01-07T04:43:14;0.95;;;0.32;;
39322;SDS011;25036;53.638;10.134;2024-01-07T04:44:14;1.43;;;0.30;;
39322;SDS011;25036;53.638;10.134;2024-01-07T04:45:14;0.57;;;0.30;;
39322;SDS011;25036;53.638;10.134;2024-01-07T04:46:15;0.97;;;0.30;;
39322;SDS011;25036;53.638;10.134;2024-01-07T04:47:28;1.00;;;0.30;;
39322;SDS011;25036;53.638;10.134;2024-01-07T04:48:28;0.60;;;0.40;;
39322;SDS011;25036;53.638;10.134;2024-01-07T04:49:28;0.37;;;0.30;;
39322;SDS011;25036;53.638;10.134;2024-01-07T04:50:29;1.17;;;0.20;;
39322;SDS011;25036;53.638;10.134;2024-01-07T04:51:29;1.27;;;0.40;;
39322;SDS011;25036;53.638;10.134;2024-01-07T04:52:29;0.63;;;0.30;;
39322;SDS011;25036;53.638;10.134;2024-01-07T04:53:29;0.60;;;0.20;;
39322;SDS011;25036;53.638;10.134;2024-01-07T04:54:29;2.20;;;0.47;;
39322;SDS011;25036;53.638;10.134;2024-01-07T04:55:29;0.77;;;0.40;;
39322;SDS011;25036;53.638;10.134;2024-01-07T04:56:29;0.85;;;0.30;;
39322;SDS011;25036;53.638;10.134;2024-01-07T04:57:30;0.67;;;0.40;;
39322;SDS011;25036;53.638;10.134;2024-01-07T04:58:30;0.80;;;0.30;;
39322;SDS011;25036;53.638;10.134;2024-01-07T04:59:30;0.30;;;0.30;;
39322;SDS011;25036;53.638;10.134;2024-01-07T05:00:30;1.67;;;0.30;;
39322;SDS011;25036;53.638;10.134;2024-01-07T05:01:32;0.85;;;0.43;;
39322;SDS011;25036;53.638;10.134;2024-01-07T05:02:32;0.52;;;0.30;;
39322;SDS011;25036;53.638;10.134;2024-01-07T05:03:32;0.60;;;0.27;;
39322;SDS011;25036;53.638;10.134;2024-01-07T05:04:35;1.23;;;0.35;;
39322;SDS011;25036;53.638;10.134;2024-01-07T05:05:35;1.02;;;0.60;;
39322;SDS011;25036;53.638;10.134;2024-01-07T05:06:36;1.27;;;0.50;;
39322;SDS011;25036;53.638;10.134;2024-01-07T05:07:37;1.27;;;0.60;;
39322;SDS011;25036;53.638;10.134;2024-01-07T05:08:37;0.40;;;0.22;;
39322;SDS011;25036;53.638;10.134;2024-01-07T05:09:39;0.28;;;0.22;;
39322;SDS011;25036;53.638;10.134;2024-01-07T05:10:39;0.85;;;0.35;;
39322;SDS011;25036;53.638;10.134;2024-01-07T05:11:39;0.97;;;0.30;;
39322;SDS011;25036;53.638;10.134;2024-01-07T05:12:39;0.90;;;0.43;;
39322;SDS011;25036;53.638;10.134;2024-01-07T05:13:40;1.60;;;0.37;;
39322;SDS011;25036;53.638;10.134;2024-01-07T05:14:40;0.95;;;0.30;;
39322;SDS011;25036;53.638;10.134;2024-01-07T05:15:40;0.50;;;0.40;;
39322;SDS011;25036;53.638;10.134;2024-01-07T05:16:40;0.37;;;0.20;;
39322;SDS011;25036;53.638;10.134;2024-01-07T05:17:40;1.13;;;0.30;;
39322;SDS011;25036;53.638;10.134;2024-01-07T05:18:41;0.40;;;0.20;;
39322;SDS011;25036;53.638;10.134;2024-01-07T05:19:41;0.50;;;0.27;;
39322;SDS011;25036;53.638;10.134;2024-01-07T05:20:41;0.40;;;0.40;;
39322;SDS011;25036;53.638;10.134;2024-01-07T05:21:41;0.83;;;0.40;;
39322;SDS011;25036;53.638;10.134;2024-01-07T05:22:41;0.90;;;0.40;;
39322;SDS011;25036;53.638;10.134;2024-01-07T05:23:42;0.43;;;0.40;;
39322;SDS011;25036;53.638;10.134;2024-01-07T05:24:42;0.40;;;0.20;;
39322;SDS011;25036;53.638;10.134;2024-01-07T05:25:42;0.63;;;0.30;;
39322;SDS011;25036;53.638;10.134;2024-01-07T05:26:43;1.35;;;0.32;;
39322;SDS011;25036;53.638;10.134;2024-01-07T05:27:44;0.85;;;0.30;;
39322;SDS011;25036;53.638;10.134;2024-01-07T05:28:44;0.77;;;0.40;;
39322;SDS011;25036;53.638;10.134;2024-01-07T05:29:44;1.40;;;0.40;;
39322;SDS011;25036;53.638;10.134;2024-01-07T05:30:46;0.30;;;0.20;;
39322;SDS011;25036;53.638;10.134;2024-01-07T05:31:46;2.30;;;0.25;;
39322;SDS011;25036;53.638;10.134;2024-01-07T05:32:46;0.30;;;0.30;;
39322;SDS011;25036;53.638;10.134;2024-01-07T05:33:46;1.10;;;0.27;;
39322;SDS011;25036;53.638;10.134;2024-01-07T05:34:46;1.52;;;0.40;;
39322;SDS011;25036;53.638;10.134;2024-01-07T05:35:46;1.00;;;0.23;;
39322;SDS011;25036;53.638;10.134;2024-01-07T05:36:46;1.17;;;0.30;;
39322;SDS011;25036;53.638;10.134;2024-01-07T05:37:47;1.67;;;0.30;;
39322;SDS011;25036;53.638;10.134;2024-01-07T05:38:47;0.87;;;0.40;;
39322;SDS011;25036;53.638;10.134;2024-01-07T05:39:47;0.37;;;0.23;;
39322;SDS011;25036;53.638;10.134;2024-01-07T05:40:47;1.30;;;0.45;;
39322;SDS011;25036;53.638;10.134;2024-01-07T05:41:47;1.25;;;0.40;;
39322;SDS011;25036;53.638;10.134;2024-01-07T05:42:47;1.33;;;0.40;;
39322;SDS011;25036;53.638;10.134;2024-01-07T05:43:47;0.93;;;0.30;;
39322;SDS011;25036;53.638;10.134;2024-01-07T05:44:48;0.70;;;0.40;;
39322;SDS011;25036;53.638;10.134;2024-01-07T05:45:48;1.07;;;0.40;;
39322;SDS011;25036;53.638;10.134;2024-01-07T05:46:48;2.23;;;0.40;;
39322;SDS011;25036;53.638;10.134;2024-01-07T05:47:48;1.55;;;0.40;;
39322;SDS011;25036;53.638;10.134;2024-01-07T05:48:48;0.97;;;0.40;;
39322;SDS011;25036;53.638;10.134;2024-01-07T05:49:49;0.57;;;0.40;;
39322;SDS011;25036;53.638;10.134;2024-01-07T05:50:51;1.05;;;0.43;;
39322;SDS011;25036;53.638;10.134;2024-01-07T05:51:52;0.50;;;0.47;;
39322;SDS011;25036;53.638;10.134;2024-01-07T05:52:52;1.07;;;0.60;;
39322;SDS011;25036;53.638;10.134;2024-01-07T05:53:52;0.90;;;0.40;;
39322;SDS011;25036;53.638;10.134;2024-01-07T05:54:52;1.23;;;0.40;;
39322;SDS011;25036;53.638;10.134;2024-01-07T05:55:52;0.73;;;0.40;;
39322;SDS011;25036;53.638;10.134;2024-01-07T05:56:52;0.90;;;0.30;;
39322;SDS011;25036;53.638;10.134;2024-01-07T05:57:52;0.80;;;0.57;;